Time;durP1;ratioP1;P1;durP2;ratioP2;P2;SDS_P1;SDS_P2;PMS_P1;PMS_P2;Temp;Humidity;BMP_temperature;BMP_pressure;BME280_temperature;BME280_humidity;BME280_pressure;Samples;Min_cycle;Max_cycle;Signal;HPM_P1;HPM_P2
2022/07/27 00:00:25;;;;;;;10.18;1.77;;;15.60;99.90;;;;;;5076062;28;20459;-64
2022/07/27 00:02:51;;;;;;;4.03;1.55;;;15.50;99.90;;;;;;5075871;28;20036;-65
2022/07/27 00:05:19;;;;;;;4.70;1.15;;;15.50;99.90;;;;;;5076122;28;20040;-65
2022/07/27 00:07:45;;;;;;;5.30;1.10;;;15.50;99.90;;;;;;5076166;28;20078;-66
2022/07/27 00:10:11;;;;;;;4.10;1.40;;;15.50;99.90;;;;;;5075921;28;20483;-64
2022/07/27 00:12:37;;;;;;;8.40;1.40;;;15.40;99.90;;;;;;5076218;28;20036;-64
2022/07/27 00:15:04;;;;;;;6.40;1.33;;;15.50;99.90;;;;;;5074490;28;20036;-65
2022/07/27 00:17:30;;;;;;;8.52;1.40;;;15.50;99.90;;;;;;5075390;28;20478;-65
2022/07/27 00:19:55;;;;;;;3.33;0.88;;;15.50;99.90;;;;;;5075116;28;20032;-65
2022/07/27 00:22:21;;;;;;;4.50;1.02;;;15.50;99.90;;;;;;5075504;28;20471;-65
2022/07/27 00:24:47;;;;;;;4.53;1.17;;;15.50;99.90;;;;;;5075937;28;20379;-65
2022/07/27 00:27:13;;;;;;;4.53;1.08;;;15.50;99.90;;;;;;5075434;28;20036;-65
2022/07/27 00:29:39;;;;;;;7.03;1.00;;;15.50;99.90;;;;;;5074034;28;20047;-64
2022/07/27 00:32:05;;;;;;;5.30;1.20;;;15.50;99.90;;;;;;5074388;28;20131;-65
2022/07/27 00:34:30;;;;;;;5.28;1.27;;;15.50;99.90;;;;;;5073911;28;20049;-65
2022/07/27 00:36:56;;;;;;;6.00;1.35;;;15.50;99.90;;;;;;5075562;28;20047;-65
2022/07/27 00:39:22;;;;;;;7.30;1.48;;;15.40;99.90;;;;;;5075615;28;20360;-65
2022/07/27 00:41:47;;;;;;;2.67;0.98;;;15.40;99.90;;;;;;5075599;28;20066;-65
2022/07/27 00:44:23;;;;;;;2.65;0.95;;;15.40;99.90;;;;;;5075133;28;20044;-65
2022/07/27 00:46:48;;;;;;;5.95;0.93;;;15.40;99.90;;;;;;5075266;28;20090;-64
2022/07/27 00:49:14;;;;;;;4.70;1.17;;;15.30;99.90;;;;;;5075045;28;20041;-65
2022/07/27 00:51:40;;;;;;;4.53;0.90;;;15.30;99.90;;;;;;5075305;28;20028;-64
2022/07/27 00:54:05;;;;;;;6.55;1.45;;;15.20;99.90;;;;;;5074077;28;20037;-65
2022/07/27 00:56:31;;;;;;;4.40;1.70;;;15.20;99.90;;;;;;5074776;28;20037;-65
2022/07/27 00:58:57;;;;;;;5.20;1.20;;;15.10;99.90;;;;;;5074773;28;20044;-65
2022/07/27 01:01:22;;;;;;;3.60;1.20;;;15.10;99.90;;;;;;5075027;28;20036;-65
2022/07/27 01:03:48;;;;;;;5.60;1.65;;;15.00;99.90;;;;;;5073561;28;20086;-65
2022/07/27 01:06:14;;;;;;;3.40;1.17;;;15.00;99.90;;;;;;5075010;28;20048;-65
2022/07/27 01:08:41;;;;;;;3.85;1.00;;;15.00;99.90;;;;;;5072857;28;20059;-64
2022/07/27 01:11:07;;;;;;;4.32;1.35;;;14.90;99.90;;;;;;5074652;28;20054;-66
2022/07/27 01:13:36;;;;;;;5.13;1.38;;;14.90;99.90;;;;;;5073580;28;20036;-66
2022/07/27 01:16:05;;;;;;;9.73;1.58;;;15.00;99.90;;;;;;5073670;28;20106;-66
2022/07/27 01:18:36;;;;;;;10.80;2.28;;;15.00;99.90;;;;;;5074699;28;20036;-65
2022/07/27 01:21:04;;;;;;;3.95;1.40;;;15.10;99.90;;;;;;5073060;28;20043;-66
2022/07/27 01:23:33;;;;;;;5.90;1.38;;;15.00;99.90;;;;;;5074801;28;20051;-65
2022/07/27 01:26:00;;;;;;;4.75;1.42;;;15.00;99.90;;;;;;5056233;28;20486;-65
2022/07/27 01:28:26;;;;;;;4.72;1.20;;;15.10;99.90;;;;;;5074078;28;20043;-65
2022/07/27 01:30:53;;;;;;;4.60;1.33;;;15.10;99.90;;;;;;5074192;28;20044;-64
2022/07/27 01:33:24;;;;;;;7.22;1.90;;;15.20;99.90;;;;;;5073644;28;20434;-65
2022/07/27 01:35:52;;;;;;;7.57;2.13;;;15.20;99.90;;;;;;5074472;28;20044;-65
2022/07/27 01:38:18;;;;;;;12.13;2.13;;;15.20;99.90;;;;;;5074232;28;20044;-65
2022/07/27 01:40:44;;;;;;;3.88;1.20;;;15.20;99.90;;;;;;5074318;28;20274;-65
2022/07/27 01:43:12;;;;;;;5.03;1.42;;;15.10;99.90;;;;;;5074289;28;20067;-64
2022/07/27 01:45:39;;;;;;;6.95;1.65;;;15.10;99.90;;;;;;5074583;28;20036;-64
2022/07/27 01:48:05;;;;;;;7.50;1.63;;;15.00;99.90;;;;;;5074420;28;20509;-65
2022/07/27 01:50:30;;;;;;;5.43;1.90;;;15.00;99.90;;;;;;5073815;28;20041;-65
2022/07/27 01:52:56;;;;;;;10.57;1.90;;;15.00;99.90;;;;;;5072815;28;20131;-65
2022/07/27 01:55:22;;;;;;;5.45;1.70;;;14.80;99.90;;;;;;5073944;28;20127;-65
2022/07/27 01:57:48;;;;;;;6.45;1.20;;;14.80;99.90;;;;;;5074028;28;20045;-65
2022/07/27 02:00:13;;;;;;;8.30;2.08;;;14.70;99.90;;;;;;5072654;28;20048;-64
2022/07/27 02:02:40;;;;;;;7.78;1.58;;;14.60;99.90;;;;;;5073658;28;20399;-64
2022/07/27 02:05:06;;;;;;;6.38;1.70;;;14.50;99.90;;;;;;5073322;28;20119;-64
2022/07/27 02:07:32;;;;;;;8.95;2.05;;;14.40;99.90;;;;;;5073713;28;20093;-65
2022/07/27 02:09:57;;;;;;;5.55;1.90;;;14.40;99.90;;;;;;5073899;28;20056;-64
2022/07/27 02:12:35;;;;;;;6.50;1.40;;;14.30;99.90;;;;;;5074066;28;20091;-66
2022/07/27 02:15:07;;;;;;;5.53;1.52;;;14.30;99.90;;;;;;5073796;28;20079;-64
2022/07/27 02:17:33;;;;;;;9.13;1.75;;;14.20;99.90;;;;;;5074154;28;20044;-66
2022/07/27 02:19:59;;;;;;;6.35;1.33;;;14.20;99.90;;;;;;5073671;28;20055;-64
2022/07/27 02:22:25;;;;;;;3.15;1.30;;;14.20;99.90;;;;;;5073737;28;20032;-66
2022/07/27 02:24:50;;;;;;;8.13;1.42;;;14.20;99.90;;;;;;5073748;28;20051;-64
2022/07/27 02:27:16;;;;;;;8.77;1.85;;;14.10;99.90;;;;;;5072597;28;20045;-65
2022/07/27 02:29:42;;;;;;;3.80;1.60;;;14.10;99.90;;;;;;5073679;28;20094;-65
2022/07/27 02:32:08;;;;;;;5.82;1.60;;;14.10;99.90;;;;;;5073954;28;20032;-66
2022/07/27 02:34:34;;;;;;;7.50;1.20;;;14.10;99.90;;;;;;5062235;28;20056;-64
2022/07/27 02:37:00;;;;;;;7.65;1.92;;;14.10;99.90;;;;;;5053685;28;20464;-65
2022/07/27 02:39:25;;;;;;;7.13;1.50;;;14.00;99.90;;;;;;5053745;28;20472;-65
2022/07/27 02:41:51;;;;;;;6.80;1.70;;;14.10;99.90;;;;;;5053809;28;20391;-65
2022/07/27 02:44:17;;;;;;;2.78;1.60;;;14.00;99.90;;;;;;5055551;28;20111;-64
2022/07/27 02:46:43;;;;;;;5.45;2.00;;;14.00;99.90;;;;;;5057247;28;20040;-66
2022/07/27 02:49:09;;;;;;;4.05;1.45;;;14.10;99.90;;;;;;5057339;28;20037;-64
2022/07/27 02:51:35;;;;;;;6.53;1.58;;;14.10;99.90;;;;;;5057228;28;20123;-64
2022/07/27 02:54:01;;;;;;;8.98;1.95;;;14.00;99.90;;;;;;5057354;28;20064;-65
2022/07/27 02:56:27;;;;;;;7.28;1.67;;;14.00;99.90;;;;;;5057071;28;20041;-65
2022/07/27 02:58:53;;;;;;;7.47;1.73;;;14.00;99.90;;;;;;5057473;28;20463;-64
2022/07/27 03:01:18;;;;;;;9.60;2.95;;;14.10;99.90;;;;;;5057475;28;20076;-64
2022/07/27 03:03:44;;;;;;;8.95;3.08;;;14.10;99.90;;;;;;5057393;28;20064;-64
2022/07/27 03:06:10;;;;;;;8.30;1.80;;;14.10;99.90;;;;;;5057191;28;20537;-64
2022/07/27 03:08:36;;;;;;;10.18;1.92;;;14.10;99.90;;;;;;5056843;28;20128;-65
2022/07/27 03:11:02;;;;;;;4.60;1.75;;;14.20;99.90;;;;;;5057272;28;20088;-65
2022/07/27 03:13:28;;;;;;;7.75;1.85;;;14.20;99.90;;;;;;5056729;28;20060;-65
2022/07/27 03:15:54;;;;;;;8.35;2.15;;;14.30;99.90;;;;;;5057127;28;20079;-65
2022/07/27 03:18:20;;;;;;;5.95;1.67;;;14.30;99.90;;;;;;5056851;28;20086;-64
2022/07/27 03:20:46;;;;;;;6.32;1.85;;;14.30;99.90;;;;;;5056764;28;20124;-65
2022/07/27 03:23:12;;;;;;;6.28;1.75;;;14.30;99.90;;;;;;5056991;28;20029;-65
2022/07/27 03:25:38;;;;;;;3.63;1.90;;;14.30;99.90;;;;;;5056891;28;20095;-65
2022/07/27 03:28:04;;;;;;;8.18;2.30;;;14.30;99.90;;;;;;5057071;28;20076;-65
2022/07/27 03:30:30;;;;;;;4.55;1.73;;;14.30;99.90;;;;;;5057013;28;20122;-65
2022/07/27 03:32:55;;;;;;;7.97;2.08;;;14.40;99.90;;;;;;5056949;28;20379;-65
2022/07/27 03:35:21;;;;;;;9.82;2.10;;;14.40;99.90;;;;;;5056544;28;20033;-65
2022/07/27 03:37:46;;;;;;;6.38;1.60;;;14.30;99.90;;;;;;5056656;28;20033;-65
2022/07/27 03:40:12;;;;;;;9.52;2.30;;;14.20;99.90;;;;;;5056613;28;20033;-65
2022/07/27 03:42:38;;;;;;;4.82;1.90;;;14.30;99.90;;;;;;5056758;28;20053;-64
2022/07/27 03:45:04;;;;;;;4.93;1.52;;;14.30;99.90;;;;;;5056656;28;20064;-65
2022/07/27 03:47:30;;;;;;;6.03;2.15;;;14.20;99.90;;;;;;5056344;28;20037;-65
2022/07/27 03:49:56;;;;;;;6.30;2.13;;;14.20;99.90;;;;;;5056238;28;20044;-65
2022/07/27 03:52:22;;;;;;;8.23;2.10;;;14.30;99.90;;;;;;5054599;28;20041;-65
2022/07/27 03:54:47;;;;;;;8.43;1.67;;;14.30;99.90;;;;;;5056248;28;20447;-65
2022/07/27 03:57:13;;;;;;;10.70;2.00;;;14.30;99.90;;;;;;5056396;28;20065;-65
2022/07/27 03:59:39;;;;;;;12.63;1.98;;;14.40;99.90;;;;;;5056446;28;20107;-65
2022/07/27 04:02:04;;;;;;;5.55;1.90;;;14.30;99.90;;;;;;5055934;28;20040;-65
2022/07/27 04:04:30;;;;;;;7.85;1.77;;;14.30;99.90;;;;;;5055366;28;20041;-65
2022/07/27 04:06:56;;;;;;;7.57;2.70;;;14.20;99.90;;;;;;5056094;28;20059;-65
2022/07/27 04:09:22;;;;;;;7.20;1.60;;;14.20;99.90;;;;;;5055518;28;20068;-64
2022/07/27 04:11:47;;;;;;;3.30;1.42;;;14.20;99.90;;;;;;5056132;28;20083;-66
2022/07/27 04:14:15;;;;;;;8.50;2.08;;;14.20;99.90;;;;;;5056167;28;20356;-65
2022/07/27 04:16:40;;;;;;;9.48;2.17;;;14.20;99.90;;;;;;5055346;28;20491;-65
2022/07/27 04:19:06;;;;;;;5.82;1.77;;;14.20;99.90;;;;;;5055551;28;20029;-64
2022/07/27 04:21:33;;;;;;;6.20;1.83;;;14.10;99.90;;;;;;5055556;28;20040;-65
2022/07/27 04:24:02;;;;;;;11.10;2.17;;;14.10;99.90;;;;;;5055412;28;20045;-65
2022/07/27 04:26:28;;;;;;;10.90;2.58;;;14.20;99.90;;;;;;5055486;28;20041;-65
2022/07/27 04:28:53;;;;;;;7.85;2.00;;;14.20;99.90;;;;;;5055379;28;20040;-65
2022/07/27 04:31:19;;;;;;;8.25;2.00;;;14.20;99.90;;;;;;5055521;28;20037;-65
2022/07/27 04:33:44;;;;;;;8.95;2.40;;;14.20;99.90;;;;;;5055424;28;20045;-65
2022/07/27 04:36:10;;;;;;;5.65;1.80;;;14.10;99.90;;;;;;5055554;28;20036;-64
2022/07/27 04:38:36;;;;;;;5.90;1.85;;;14.20;99.90;;;;;;5055291;28;20040;-65
2022/07/27 04:41:01;;;;;;;8.88;1.90;;;14.20;99.90;;;;;;5060929;28;20068;-65
2022/07/27 04:43:27;;;;;;;3.55;1.80;;;14.30;99.90;;;;;;5075086;28;20037;-64
2022/07/27 04:45:53;;;;;;;11.43;2.03;;;14.30;99.90;;;;;;5075241;28;20041;-64
2022/07/27 04:48:18;;;;;;;5.38;2.05;;;14.30;99.90;;;;;;5074617;28;20348;-64
2022/07/27 04:58:06;;;;;;;7.25;2.15;;;14.40;99.90;;;;;;5073758;28;20063;-64
2022/07/27 05:00:32;;;;;;;7.68;2.15;;;14.40;99.90;;;;;;5058309;28;20475;-64
2022/07/27 05:02:57;;;;;;;9.43;2.15;;;14.50;99.90;;;;;;5054605;28;20039;-64
2022/07/27 05:05:23;;;;;;;12.65;2.42;;;14.50;99.90;;;;;;5054854;28;20502;-64
2022/07/27 05:07:49;;;;;;;6.38;1.98;;;14.50;99.90;;;;;;5054436;28;20044;-63
2022/07/27 05:10:14;;;;;;;7.65;2.10;;;14.60;99.90;;;;;;5054259;28;20053;-63
2022/07/27 05:12:40;;;;;;;5.60;1.80;;;14.60;99.90;;;;;;5067531;28;20040;-63
2022/07/27 05:15:06;;;;;;;5.88;1.65;;;14.60;99.90;;;;;;5074371;28;20044;-63
2022/07/27 05:17:33;;;;;;;9.40;2.33;;;14.70;99.90;;;;;;5074671;28;20103;-64
2022/07/27 05:19:59;;;;;;;3.70;1.17;;;14.70;99.90;;;;;;5074393;28;20040;-64
2022/07/27 05:22:24;;;;;;;4.90;1.60;;;14.70;99.90;;;;;;5073272;28;20486;-64
2022/07/27 05:24:50;;;;;;;5.05;1.90;;;14.80;99.90;;;;;;5074326;28;20039;-64
2022/07/27 05:27:16;;;;;;;7.00;2.45;;;14.80;99.90;;;;;;5074180;28;20051;-64
2022/07/27 05:29:42;;;;;;;6.72;1.85;;;14.80;99.90;;;;;;5074158;28;20111;-64
2022/07/27 05:32:08;;;;;;;7.78;2.58;;;14.80;99.90;;;;;;5074261;28;20368;-64
2022/07/27 05:34:34;;;;;;;6.70;2.53;;;14.80;99.90;;;;;;5074104;28;20062;-65
2022/07/27 05:36:59;;;;;;;5.15;1.85;;;14.80;99.90;;;;;;5074154;28;20040;-65
2022/07/27 05:39:25;;;;;;;4.38;2.00;;;14.80;99.90;;;;;;5073981;28;20033;-64
2022/07/27 05:41:51;;;;;;;7.60;2.72;;;14.80;99.90;;;;;;5073806;28;20391;-64
2022/07/27 05:44:16;;;;;;;6.35;1.75;;;14.90;99.90;;;;;;5074055;28;20037;-64
2022/07/27 05:46:42;;;;;;;13.98;2.50;;;14.90;99.90;;;;;;5074018;28;20067;-65
2022/07/27 05:49:08;;;;;;;10.80;3.05;;;14.90;99.90;;;;;;5073917;28;20029;-64
2022/07/27 05:51:33;;;;;;;8.40;1.98;;;15.00;99.90;;;;;;5073977;28;20505;-64
2022/07/27 05:53:59;;;;;;;3.35;1.30;;;15.00;99.90;;;;;;5073983;28;20387;-63
2022/07/27 05:56:26;;;;;;;6.45;1.60;;;15.10;99.90;;;;;;5073510;28;20032;-64
2022/07/27 05:58:52;;;;;;;5.75;1.65;;;15.20;99.90;;;;;;5073919;28;20158;-64
2022/07/27 06:01:18;;;;;;;6.90;1.95;;;15.20;99.90;;;;;;5073604;28;20357;-64
2022/07/27 06:03:44;;;;;;;10.15;3.10;;;15.20;99.90;;;;;;5072487;28;20044;-65
2022/07/27 06:08:54;;;;;;;8.57;2.58;;;15.30;99.90;;;;;;5073534;28;20088;-64
2022/07/27 06:11:20;;;;;;;8.00;1.92;;;15.30;99.90;;;;;;5074391;28;20113;-64
2022/07/27 06:13:45;;;;;;;9.55;2.38;;;15.40;99.90;;;;;;5073623;28;20032;-64
2022/07/27 06:16:11;;;;;;;8.90;3.33;;;15.50;99.90;;;;;;5073658;28;20048;-65
2022/07/27 06:18:37;;;;;;;6.38;1.70;;;15.50;99.90;;;;;;5074239;28;20063;-64
2022/07/27 06:21:03;;;;;;;10.35;1.83;;;15.60;99.90;;;;;;5078030;28;20041;-64
2022/07/27 06:23:29;;;;;;;7.47;1.50;;;15.80;99.90;;;;;;5077605;28;20494;-64
2022/07/27 06:25:56;;;;;;;7.07;1.80;;;16.10;99.90;;;;;;5077739;28;20043;-64
2022/07/27 06:28:22;;;;;;;7.32;1.50;;;16.00;99.90;;;;;;5077744;28;20044;-64
2022/07/27 06:30:48;;;;;;;8.48;1.92;;;16.20;99.90;;;;;;5077644;28;20040;-64
2022/07/27 06:33:14;;;;;;;6.03;1.70;;;16.40;99.90;;;;;;5077657;28;20475;-64
2022/07/27 06:35:40;;;;;;;7.22;1.55;;;16.70;99.90;;;;;;5077374;28;20421;-64
2022/07/27 06:38:07;;;;;;;6.15;1.30;;;16.80;99.90;;;;;;5077510;28;20394;-62
2022/07/27 06:40:33;;;;;;;6.68;1.63;;;16.90;99.90;;;;;;5077290;28;20508;-63
2022/07/27 06:42:59;;;;;;;8.00;1.92;;;16.80;99.90;;;;;;5076234;28;20041;-64
2022/07/27 06:45:25;;;;;;;7.40;1.67;;;17.10;99.90;;;;;;5077289;28;20056;-65
2022/07/27 06:47:51;;;;;;;8.07;1.95;;;17.10;99.90;;;;;;5076966;28;20502;-63
2022/07/27 06:50:20;;;;;;;8.63;1.40;;;17.40;99.90;;;;;;5077271;28;20041;-63
2022/07/27 06:52:47;;;;;;;7.05;1.90;;;17.50;99.90;;;;;;5077200;28;20043;-64
2022/07/27 06:55:13;;;;;;;5.82;1.42;;;17.70;99.90;;;;;;5077135;28;20041;-64
2022/07/27 06:57:39;;;;;;;6.85;1.88;;;17.90;99.90;;;;;;5077129;28;20048;-64
2022/07/27 07:00:05;;;;;;;5.22;1.48;;;18.10;99.90;;;;;;5075985;28;20055;-63
2022/07/27 07:02:31;;;;;;;9.65;1.63;;;18.10;99.90;;;;;;5076913;28;20123;-64
2022/07/27 07:04:57;;;;;;;6.57;1.23;;;18.30;99.90;;;;;;5076980;28;20067;-64
2022/07/27 07:07:24;;;;;;;9.00;1.48;;;18.40;99.90;;;;;;5076664;28;20036;-63
2022/07/27 07:09:50;;;;;;;4.47;1.30;;;18.50;99.90;;;;;;5076648;28;20127;-63
2022/07/27 07:12:17;;;;;;;9.38;1.83;;;18.80;99.90;;;;;;5076887;28;20124;-64
2022/07/27 07:14:43;;;;;;;8.75;1.92;;;19.00;99.90;;;;;;5076636;28;20044;-63
2022/07/27 07:17:09;;;;;;;7.88;1.48;;;19.20;99.90;;;;;;5076734;28;20101;-64
2022/07/27 07:19:34;;;;;;;9.38;1.85;;;19.10;99.90;;;;;;5076666;28;20475;-64
2022/07/27 07:22:00;;;;;;;6.40;1.40;;;18.60;99.90;;;;;;5076414;28;20025;-65
2022/07/27 07:24:28;;;;;;;5.18;1.25;;;18.40;99.90;;;;;;5076654;28;20033;-65
2022/07/27 07:26:54;;;;;;;4.40;1.60;;;18.40;99.90;;;;;;5076487;28;20530;-65
2022/07/27 07:29:20;;;;;;;3.83;1.10;;;18.30;99.90;;;;;;5076182;28;20119;-65
2022/07/27 07:31:46;;;;;;;2.33;1.35;;;18.20;99.90;;;;;;5076473;28;20032;-65
2022/07/27 07:34:11;;;;;;;5.50;1.58;;;18.10;99.90;;;;;;5076383;28;20121;-65
2022/07/27 07:36:37;;;;;;;7.65;1.50;;;17.90;99.90;;;;;;5074858;28;20044;-64
2022/07/27 07:39:03;;;;;;;6.18;1.58;;;17.80;99.90;;;;;;5076397;28;20032;-64
2022/07/27 07:41:28;;;;;;;6.72;1.20;;;17.60;99.90;;;;;;5076338;28;20076;-65
2022/07/27 07:43:54;;;;;;;6.88;1.58;;;17.50;99.90;;;;;;5076155;28;20040;-65
2022/07/27 07:46:20;;;;;;;3.47;1.17;;;17.60;99.90;;;;;;5076196;28;20129;-64
2022/07/27 07:48:45;;;;;;;6.40;1.70;;;17.50;99.90;;;;;;5076163;28;20040;-64
2022/07/27 07:51:12;;;;;;;6.28;1.50;;;17.40;99.90;;;;;;5075767;28;20364;-65
2022/07/27 07:53:38;;;;;;;5.78;2.08;;;17.20;99.90;;;;;;5076047;28;20083;-65
2022/07/27 07:56:04;;;;;;;9.30;1.80;;;17.10;99.90;;;;;;5075945;28;20072;-65
2022/07/27 07:58:30;;;;;;;3.97;1.70;;;16.90;99.90;;;;;;5076035;28;20036;-64
2022/07/27 08:00:55;;;;;;;4.57;1.30;;;16.70;99.90;;;;;;5074400;28;20398;-64
2022/07/27 08:03:21;;;;;;;8.35;1.90;;;16.70;99.90;;;;;;5075854;28;20079;-64
2022/07/27 08:05:47;;;;;;;8.75;1.73;;;16.60;99.90;;;;;;5075859;28;20037;-64
2022/07/27 08:08:14;;;;;;;6.18;1.38;;;16.50;99.90;;;;;;5074493;28;20391;-64
2022/07/27 08:10:39;;;;;;;7.85;1.50;;;16.60;99.90;;;;;;5075252;28;20087;-64
2022/07/27 08:13:08;;;;;;;6.72;1.75;;;16.60;99.90;;;;;;5075715;28;20040;-64
2022/07/27 08:15:34;;;;;;;6.70;1.73;;;16.70;99.90;;;;;;5074263;28;20093;-64
2022/07/27 08:17:59;;;;;;;5.50;1.70;;;16.60;99.90;;;;;;5075503;28;20032;-64
2022/07/27 08:20:27;;;;;;;7.35;1.23;;;16.70;99.90;;;;;;5075255;28;20047;-64
2022/07/27 08:22:52;;;;;;;5.63;1.42;;;16.90;99.90;;;;;;5075542;28;20382;-64
2022/07/27 08:25:18;;;;;;;9.07;1.67;;;16.90;99.90;;;;;;5075395;28;20033;-64
2022/07/27 08:27:44;;;;;;;6.80;1.33;;;17.00;99.90;;;;;;5075401;28;20050;-64
2022/07/27 08:30:10;;;;;;;4.95;1.17;;;17.10;99.90;;;;;;5075061;28;20036;-64
2022/07/27 08:32:53;;;;;;;7.60;1.50;;;17.20;99.90;;;;;;5075316;28;20037;-65
2022/07/27 08:35:20;;;;;;;5.25;1.60;;;17.20;99.90;;;;;;5075174;28;20049;-65
2022/07/27 08:37:45;;;;;;;3.70;1.13;;;17.20;99.90;;;;;;5075237;28;20044;-64
2022/07/27 08:40:12;;;;;;;4.95;1.30;;;17.30;99.90;;;;;;5073874;28;20390;-65
2022/07/27 08:42:40;;;;;;;3.10;1.20;;;17.30;99.90;;;;;;5073075;28;20033;-65
2022/07/27 08:45:08;;;;;;;5.30;1.10;;;17.40;99.90;;;;;;5074805;28;20484;-65
2022/07/27 08:47:35;;;;;;;3.53;0.98;;;17.40;99.90;;;;;;5075001;28;20051;-65
2022/07/27 08:50:02;;;;;;;6.70;1.35;;;17.50;99.90;;;;;;5075002;28;20085;-65
2022/07/27 08:52:28;;;;;;;4.95;1.23;;;17.70;99.90;;;;;;5074131;28;20505;-65
2022/07/27 08:54:54;;;;;;;6.90;1.88;;;17.80;99.90;;;;;;5074723;28;20036;-65
2022/07/27 08:57:20;;;;;;;5.95;1.10;;;18.00;99.90;;;;;;5074641;28;20526;-65
2022/07/27 08:59:45;;;;;;;3.13;1.02;;;18.00;99.90;;;;;;5074458;28;20119;-65
2022/07/27 09:02:13;;;;;;;8.15;1.40;;;18.10;99.90;;;;;;5074734;28;20174;-64
2022/07/27 09:04:41;;;;;;;4.40;1.50;;;18.40;99.90;;;;;;5074647;28;20041;-64
2022/07/27 09:07:07;;;;;;;3.47;1.15;;;18.50;99.90;;;;;;5056770;28;20425;-64
2022/07/27 09:09:45;;;;;;;5.20;1.10;;;18.80;99.90;;;;;;5073024;28;20197;-64
2022/07/27 09:12:11;;;;;;;6.20;1.10;;;19.00;99.90;;;;;;5074448;28;20040;-65
2022/07/27 09:14:39;;;;;;;2.10;0.93;;;19.20;99.90;;;;;;5074407;28;20059;-65
2022/07/27 09:17:25;;;;;;;8.13;1.48;;;19.40;99.90;;;;;;5074334;28;20052;-64
2022/07/27 09:20:08;;;;;;;5.47;1.13;;;19.40;99.90;;;;;;5074261;28;20040;-65
2022/07/27 09:22:54;;;;;;;3.65;0.90;;;19.60;99.90;;;;;;5074285;28;20046;-65
2022/07/27 09:25:24;;;;;;;3.08;0.90;;;19.70;99.90;;;;;;5074337;28;20072;-65
2022/07/27 09:27:55;;;;;;;3.28;0.90;;;19.70;99.90;;;;;;5074251;28;20041;-65
2022/07/27 09:30:21;;;;;;;4.93;0.90;;;19.70;99.90;;;;;;5073941;28;20083;-65
2022/07/27 09:33:04;;;;;;;7.32;1.83;;;19.80;99.90;;;;;;5074196;28;20044;-64
2022/07/27 09:35:34;;;;;;;3.67;1.20;;;19.90;99.90;;;;;;5074040;28;20044;-64
2022/07/27 09:38:19;;;;;;;5.10;1.40;;;19.80;99.90;;;;;;5073994;28;20059;-65
2022/07/27 09:40:47;;;;;;;3.03;0.90;;;19.90;99.90;;;;;;5074089;28;20071;-64
2022/07/27 09:43:13;;;;;;;6.20;0.73;;;19.80;99.90;;;;;;5073922;28;20040;-64
2022/07/27 09:45:43;;;;;;;4.13;1.00;;;19.90;99.90;;;;;;5073962;28;20426;-64
2022/07/27 09:48:15;;;;;;;5.22;0.85;;;20.00;99.90;;;;;;5074009;28;20044;-64
2022/07/27 09:50:57;;;;;;;6.90;1.10;;;20.30;99.90;;;;;;5072825;28;20044;-63
2022/07/27 09:53:25;;;;;;;5.20;1.00;;;20.60;99.90;;;;;;5072374;28;20433;-64
2022/07/27 09:56:01;;;;;;;3.40;0.93;;;20.70;99.90;;;;;;5073573;28;20040;-64
2022/07/27 09:58:47;;;;;;;8.23;1.25;;;20.70;99.90;;;;;;5073886;28;20402;-64
2022/07/27 10:01:22;;;;;;;3.53;0.75;;;20.50;99.90;;;;;;5073866;28;20119;-64
2022/07/27 10:03:59;;;;;;;3.42;1.02;;;20.50;99.90;;;;;;5073760;28;20086;-64
2022/07/27 10:06:26;;;;;;;5.47;1.02;;;20.60;99.90;;;;;;5073733;28;20036;-65
2022/07/27 10:08:53;;;;;;;3.03;1.08;;;20.50;99.90;;;;;;5073301;28;20563;-64
2022/07/27 10:11:20;;;;;;;1.83;0.70;;;20.50;99.90;;;;;;5073780;28;20041;-64
2022/07/27 10:13:47;;;;;;;4.20;1.10;;;20.70;99.90;;;;;;5073654;28;20040;-65
2022/07/27 10:16:18;;;;;;;4.85;1.15;;;20.90;99.90;;;;;;5073613;28;20123;-65
2022/07/27 10:18:44;;;;;;;2.30;0.90;;;21.20;99.90;;;;;;5072471;28;20111;-65
2022/07/27 10:21:11;;;;;;;2.97;1.08;;;21.20;99.90;;;;;;5073410;28;20048;-65
2022/07/27 10:23:37;;;;;;;1.83;0.70;;;21.00;99.90;;;;;;5073571;28;20040;-64
2022/07/27 10:26:41;;;;;;;2.58;1.00;;;20.80;99.90;;;;;;5073662;28;20398;-65
2022/07/27 10:29:13;;;;;;;3.15;1.08;;;20.70;99.90;;;;;;5051464;28;20045;-66
2022/07/27 10:31:40;;;;;;;3.08;0.73;;;20.40;99.90;;;;;;5034562;28;20483;-65
2022/07/27 10:34:08;;;;;;;2.03;0.70;;;20.40;99.90;;;;;;5051210;28;20076;-64
2022/07/27 10:36:34;;;;;;;2.40;0.88;;;20.10;99.90;;;;;;5033938;28;20451;-65
2022/07/27 10:39:08;;;;;;;4.97;0.82;;;20.10;99.90;;;;;;5051309;28;20041;-65
2022/07/27 10:41:40;;;;;;;2.63;0.68;;;20.00;99.90;;;;;;5051280;28;20124;-65
2022/07/27 10:44:19;;;;;;;4.25;1.00;;;20.10;99.90;;;;;;5051095;28;20079;-65
2022/07/27 10:46:57;;;;;;;4.10;0.90;;;20.00;99.90;;;;;;5034735;28;20075;-65
2022/07/27 10:49:26;;;;;;;1.90;0.70;;;19.90;99.90;;;;;;5035598;28;20119;-64
2022/07/27 10:51:53;;;;;;;2.47;0.70;;;20.10;99.90;;;;;;5051328;28;20557;-65
2022/07/27 10:54:25;;;;;;;2.60;0.65;;;20.20;99.90;;;;;;5051112;28;20080;-65
2022/07/27 10:56:53;;;;;;;3.03;0.90;;;20.10;99.90;;;;;;5035479;28;20052;-65
2022/07/27 10:59:43;;;;;;;2.53;0.80;;;20.20;99.90;;;;;;5057300;28;20102;-64
2022/07/27 11:02:10;;;;;;;1.25;0.50;;;20.80;99.90;;;;;;5073277;28;20279;-64
2022/07/27 11:04:48;;;;;;;1.83;0.50;;;21.50;99.90;;;;;;5072647;28;20032;-65
2022/07/27 11:07:22;;;;;;;1.27;0.43;;;21.80;99.90;;;;;;5077039;28;20263;-65
2022/07/27 11:09:51;;;;;;;2.17;0.70;;;21.50;99.90;;;;;;5076772;28;20044;-65
2022/07/27 11:12:18;;;;;;;3.80;0.88;;;21.20;99.90;;;;;;5077063;28;20052;-63
2022/07/27 11:14:53;;;;;;;3.17;0.60;;;21.10;99.90;;;;;;5076729;28;20036;-64
2022/07/27 11:17:26;;;;;;;6.72;0.80;;;21.60;99.90;;;;;;5076798;28;20119;-64
2022/07/27 11:19:56;;;;;;;2.85;0.70;;;21.80;99.90;;;;;;5076698;28;20073;-65
2022/07/27 11:22:39;;;;;;;3.17;0.70;;;21.70;99.90;;;;;;5076543;28;20478;-64
2022/07/27 11:25:07;;;;;;;5.30;0.88;;;21.50;99.90;;;;;;5076690;28;20066;-64
2022/07/27 11:27:48;;;;;;;2.50;0.73;;;21.20;99.90;;;;;;5076462;28;20047;-64
2022/07/27 11:30:24;;;;;;;3.30;0.85;;;21.00;99.90;;;;;;5076781;28;20040;-64
2022/07/27 11:32:50;;;;;;;6.45;1.13;;;21.00;99.90;;;;;;5076552;28;20068;-64
2022/07/27 11:35:16;;;;;;;5.57;1.17;;;20.90;99.90;;;;;;5076400;28;20075;-65
2022/07/27 11:38:00;;;;;;;4.85;1.05;;;20.80;99.90;;;;;;5076148;28;20036;-65
2022/07/27 11:40:25;;;;;;;2.78;0.68;;;21.00;99.90;;;;;;5076412;28;20429;-64
2022/07/27 11:42:51;;;;;;;3.03;0.77;;;21.20;99.90;;;;;;5076667;28;20044;-64
2022/07/27 11:45:29;;;;;;;2.67;1.05;;;21.10;99.90;;;;;;5076299;28;20037;-64
2022/07/27 11:47:56;;;;;;;3.40;1.00;;;21.10;99.90;;;;;;5076112;28;20044;-64
2022/07/27 11:50:22;;;;;;;3.65;0.80;;;21.00;99.90;;;;;;5076156;28;20076;-65
2022/07/27 11:52:59;;;;;;;6.88;1.08;;;21.00;99.90;;;;;;5075706;28;20075;-64
2022/07/27 11:55:25;;;;;;;8.13;1.05;;;21.00;99.90;;;;;;5076070;28;20052;-64
2022/07/27 11:57:50;;;;;;;3.03;0.80;;;20.80;99.90;;;;;;5076107;28;20392;-64
2022/07/27 12:00:16;;;;;;;4.38;0.88;;;20.90;99.90;;;;;;5076039;28;20356;-65
2022/07/27 12:02:51;;;;;;;3.92;1.00;;;21.00;99.90;;;;;;5075888;28;20042;-65
2022/07/27 12:05:16;;;;;;;4.53;0.73;;;21.00;99.90;;;;;;5075792;28;20394;-64
2022/07/27 12:07:43;;;;;;;4.47;1.05;;;21.40;99.90;;;;;;5075680;28;20040;-64
2022/07/27 12:10:09;;;;;;;4.43;1.10;;;21.40;99.90;;;;;;5075561;28;20102;-64
2022/07/27 12:12:36;;;;;;;6.93;1.20;;;21.20;99.90;;;;;;5075896;28;20127;-65
2022/07/27 12:15:18;;;;;;;5.20;1.27;;;21.10;99.90;;;;;;5075858;28;20041;-65
2022/07/27 12:17:46;;;;;;;6.07;0.88;;;21.30;99.90;;;;;;5075658;28;20040;-65
2022/07/27 12:20:23;;;;;;;4.25;1.10;;;21.20;99.90;;;;;;5075675;28;20040;-65
2022/07/27 12:22:53;;;;;;;2.88;1.20;;;21.20;99.90;;;;;;5075611;28;20390;-64
2022/07/27 12:25:22;;;;;;;6.15;1.27;;;21.10;99.90;;;;;;5074386;28;20040;-65
2022/07/27 12:28:04;;;;;;;2.20;0.63;;;21.20;99.90;;;;;;5075474;28;20387;-64
2022/07/27 12:30:37;;;;;;;2.83;0.80;;;21.20;99.90;;;;;;5075496;28;20390;-63
2022/07/27 12:33:06;;;;;;;3.20;0.90;;;21.20;99.90;;;;;;5075218;28;20115;-63
2022/07/27 12:35:46;;;;;;;5.93;1.13;;;21.50;99.90;;;;;;5075291;28;20090;-64
2022/07/27 12:38:12;;;;;;;5.20;1.17;;;21.40;99.90;;;;;;5075219;28;20062;-64
2022/07/27 12:40:54;;;;;;;3.40;1.08;;;21.60;99.90;;;;;;5075197;28;20037;-64
2022/07/27 12:43:22;;;;;;;5.20;0.93;;;21.60;99.90;;;;;;5075236;28;20036;-64
2022/07/27 12:45:50;;;;;;;5.03;0.90;;;21.20;99.90;;;;;;5075146;28;20428;-64
2022/07/27 12:48:18;;;;;;;5.43;1.50;;;21.20;99.90;;;;;;5075009;28;20115;-64
2022/07/27 12:50:46;;;;;;;3.72;1.08;;;21.10;99.90;;;;;;5074837;28;20040;-64
2022/07/27 12:53:14;;;;;;;3.88;1.08;;;21.20;99.90;;;;;;5075037;28;20072;-64
2022/07/27 12:55:41;;;;;;;4.20;1.20;;;21.20;99.90;;;;;;5073730;28;20376;-65
2022/07/27 12:58:09;;;;;;;6.32;1.13;;;21.00;99.90;;;;;;5074915;28;20037;-64